createdAt,value
2022-12-31T00:01:42.364Z,1.73
2022-12-31T00:04:09.019Z,2.90
2022-12-31T00:06:36.289Z,1.45
2022-12-31T00:09:05.637Z,9.38
2022-12-31T00:11:33.439Z,1.10
2022-12-31T00:14:00.314Z,1.10
2022-12-31T00:16:29.834Z,2.30
2022-12-31T00:18:59.404Z,1.30
2022-12-31T00:21:27.359Z,1.55
2022-12-31T00:23:54.025Z,2.72
2022-12-31T00:26:22.835Z,0.88
2022-12-31T00:28:49.536Z,0.60
2022-12-31T00:31:17.948Z,2.00
2022-12-31T00:33:45.457Z,1.05
2022-12-31T00:36:15.012Z,1.58
2022-12-31T00:38:43.518Z,1.08
2022-12-31T00:41:11.112Z,1.13
2022-12-31T00:43:37.858Z,0.82
2022-12-31T00:46:05.880Z,1.30
2022-12-31T00:48:33.569Z,1.35
2022-12-31T00:51:01.154Z,3.25
2022-12-31T00:53:29.852Z,1.08
2022-12-31T00:56:00.838Z,1.00
2022-12-31T00:58:27.588Z,0.98
2022-12-31T01:00:54.237Z,0.60
2022-12-31T01:03:20.880Z,1.05
2022-12-31T01:05:47.531Z,0.68
2022-12-31T01:08:14.211Z,0.60
2022-12-31T01:10:42.170Z,0.32
2022-12-31T01:13:09.348Z,0.85
2022-12-31T01:15:38.012Z,0.70
2022-12-31T01:18:05.742Z,2.63
2022-12-31T01:20:36.430Z,0.90
2022-12-31T01:23:03.127Z,0.65
2022-12-31T01:25:29.748Z,0.55
2022-12-31T01:27:57.717Z,1.85
2022-12-31T01:30:24.356Z,0.85
2022-12-31T01:32:51.027Z,2.45
2022-12-31T01:35:17.640Z,0.50
2022-12-31T01:37:44.519Z,3.42
2022-12-31T01:40:11.560Z,0.52
2022-12-31T01:42:38.089Z,0.40
2022-12-31T01:45:10.793Z,1.15
2022-12-31T01:47:41.844Z,0.32
2022-12-31T01:50:14.600Z,0.85
2022-12-31T01:52:44.975Z,0.45
2022-12-31T01:55:16.283Z,1.77
2022-12-31T01:57:43.874Z,0.20
2022-12-31T02:00:12.772Z,0.73
2022-12-31T02:02:39.734Z,0.75
2022-12-31T02:05:16.265Z,0.73
2022-12-31T02:07:44.424Z,1.85
2022-12-31T02:10:11.211Z,2.08
2022-12-31T02:12:37.853Z,0.55
2022-12-31T02:15:05.638Z,0.70
2022-12-31T02:17:41.743Z,0.40
2022-12-31T02:20:40.251Z,0.35
2022-12-31T02:23:34.401Z,0.85
2022-12-31T02:26:31.217Z,0.32
2022-12-31T02:29:38.228Z,0.20
2022-12-31T02:32:12.474Z,0.68
2022-12-31T02:34:46.143Z,0.10
2022-12-31T02:39:43.035Z,0.40
2022-12-31T02:42:10.614Z,0.30
2022-12-31T02:44:38.541Z,0.30
2022-12-31T02:47:19.085Z,0.70
2022-12-31T02:50:00.070Z,0.30
2022-12-31T02:52:38.652Z,0.77
2022-12-31T02:55:11.435Z,0.57
2022-12-31T02:57:42.364Z,0.30
2022-12-31T03:00:12.812Z,0.52
2022-12-31T03:02:43.753Z,1.27
2022-12-31T03:05:12.475Z,3.72
2022-12-31T03:07:40.843Z,0.43
2022-12-31T03:10:08.694Z,2.15
2022-12-31T03:12:36.076Z,0.32
2022-12-31T03:15:02.697Z,0.85
2022-12-31T03:17:29.329Z,0.47
2022-12-31T03:19:57.339Z,0.22
2022-12-31T03:22:24.166Z,0.88
2022-12-31T03:24:50.808Z,0.32
2022-12-31T03:27:17.397Z,0.60
2022-12-31T03:29:44.034Z,4.35
2022-12-31T03:32:10.599Z,1.73
2022-12-31T03:34:37.165Z,1.75
2022-12-31T03:37:05.246Z,0.28
2022-12-31T03:39:31.887Z,0.70
2022-12-31T03:41:58.493Z,0.38
2022-12-31T03:44:25.111Z,0.60
2022-12-31T03:46:51.660Z,3.90
2022-12-31T03:49:18.256Z,5.28
2022-12-31T03:51:44.869Z,0.30
2022-12-31T03:54:12.847Z,7.00
2022-12-31T03:56:39.402Z,0.30
2022-12-31T03:59:06.024Z,0.30
2022-12-31T04:01:32.699Z,0.60
2022-12-31T04:03:59.655Z,0.35
2022-12-31T04:06:26.293Z,0.55
2022-12-31T04:08:52.902Z,0.25
2022-12-31T04:11:22.265Z,0.38
2022-12-31T04:13:48.856Z,0.30
2022-12-31T04:16:15.472Z,0.30
2022-12-31T04:18:42.129Z,0.30
2022-12-31T04:21:08.794Z,0.38
2022-12-31T04:23:35.544Z,0.52
2022-12-31T04:26:02.116Z,0.43
2022-12-31T04:28:30.038Z,0.50
2022-12-31T04:30:56.716Z,1.27
2022-12-31T04:33:23.305Z,0.47
2022-12-31T04:35:49.937Z,0.38
2022-12-31T04:38:16.551Z,0.40
2022-12-31T04:40:45.106Z,1.45
2022-12-31T04:43:11.728Z,0.50
2022-12-31T04:45:39.762Z,0.30
2022-12-31T04:48:06.650Z,1.45
2022-12-31T04:50:33.281Z,0.40
2022-12-31T04:52:59.867Z,0.28
2022-12-31T04:55:26.431Z,0.30
2022-12-31T04:57:53.042Z,1.65
2022-12-31T05:00:19.866Z,0.60
2022-12-31T05:02:48.029Z,0.50
2022-12-31T05:05:14.883Z,1.88
2022-12-31T05:07:41.476Z,0.30
2022-12-31T05:10:09.030Z,0.50
2022-12-31T05:12:35.654Z,0.68
2022-12-31T05:15:02.333Z,2.25
2022-12-31T05:17:28.954Z,1.38
2022-12-31T05:19:56.942Z,1.58
2022-12-31T05:22:23.636Z,2.13
2022-12-31T05:24:50.606Z,2.65
2022-12-31T05:27:17.272Z,0.30
2022-12-31T05:29:43.843Z,0.30
2022-12-31T05:32:10.529Z,4.90
2022-12-31T05:34:37.079Z,0.65
2022-12-31T05:37:05.141Z,1.75
2022-12-31T05:39:31.728Z,0.65
2022-12-31T05:41:58.286Z,2.15
2022-12-31T05:44:24.998Z,0.57
2022-12-31T05:46:51.726Z,1.30
2022-12-31T05:49:18.339Z,0.75
2022-12-31T05:51:45.046Z,0.60
2022-12-31T05:54:12.998Z,3.08
2022-12-31T05:56:40.445Z,1.20
2022-12-31T05:59:06.996Z,1.30
2022-12-31T06:01:33.661Z,3.33
2022-12-31T06:04:00.767Z,0.60
2022-12-31T06:06:27.623Z,1.65
2022-12-31T06:08:54.305Z,0.70
2022-12-31T06:11:22.381Z,0.93
2022-12-31T06:13:49.044Z,1.85
2022-12-31T06:16:15.828Z,3.33
2022-12-31T06:18:42.446Z,1.17
2022-12-31T06:21:09.363Z,1.02
2022-12-31T06:23:35.971Z,0.65
2022-12-31T06:26:02.668Z,1.80
2022-12-31T06:28:30.789Z,1.08
2022-12-31T06:31:00.015Z,0.57
2022-12-31T06:33:26.763Z,0.57
2022-12-31T06:35:55.832Z,1.15
2022-12-31T06:38:22.569Z,0.85
2022-12-31T06:40:49.223Z,1.65
2022-12-31T06:43:15.873Z,0.50
2022-12-31T06:45:43.851Z,1.35
2022-12-31T06:48:10.542Z,0.70
2022-12-31T06:50:37.129Z,0.38
2022-12-31T06:53:03.763Z,0.30
2022-12-31T06:55:31.201Z,1.23
2022-12-31T06:57:58.367Z,1.58
2022-12-31T07:00:25.586Z,0.88
2022-12-31T07:03:16.930Z,1.00
2022-12-31T07:05:47.035Z,0.40
2022-12-31T07:08:25.976Z,0.68
2022-12-31T07:10:58.709Z,0.65
2022-12-31T07:13:52.314Z,1.85
2022-12-31T07:16:32.734Z,0.30
2022-12-31T07:19:11.129Z,0.32
2022-12-31T07:21:40.286Z,0.63
2022-12-31T07:24:08.443Z,1.38
2022-12-31T07:26:54.266Z,0.20
2022-12-31T07:29:33.373Z,0.30
2022-12-31T07:32:09.888Z,1.02
2022-12-31T07:34:47.373Z,0.70
2022-12-31T07:37:20.262Z,0.40
2022-12-31T07:40:02.270Z,0.30
2022-12-31T07:42:36.395Z,0.17
2022-12-31T07:45:14.103Z,0.90
2022-12-31T07:47:41.295Z,0.20
2022-12-31T07:50:15.108Z,0.38
2022-12-31T07:52:42.253Z,1.75
2022-12-31T07:55:09.047Z,0.57
2022-12-31T07:57:41.918Z,0.30
2022-12-31T08:00:13.488Z,0.40
2022-12-31T08:03:03.707Z,0.30
2022-12-31T08:05:39.163Z,0.30
2022-12-31T08:08:18.300Z,0.20
2022-12-31T08:10:53.591Z,1.23
2022-12-31T08:13:21.075Z,0.20
2022-12-31T08:15:48.244Z,1.88
2022-12-31T08:18:15.396Z,0.65
2022-12-31T08:20:55.589Z,2.83
2022-12-31T08:23:28.364Z,0.60
2022-12-31T08:26:11.259Z,0.40
2022-12-31T08:28:56.613Z,0.25
2022-12-31T08:31:30.603Z,0.57
2022-12-31T08:34:06.219Z,0.43
2022-12-31T08:36:45.119Z,0.43
2022-12-31T08:39:20.047Z,0.40
2022-12-31T08:41:50.392Z,1.58
2022-12-31T08:44:25.705Z,0.73
2022-12-31T08:47:00.468Z,3.03
2022-12-31T08:49:28.490Z,1.17
2022-12-31T08:51:57.669Z,0.30
2022-12-31T08:54:25.253Z,1.02
2022-12-31T08:56:57.186Z,0.30
2022-12-31T08:59:36.664Z,2.08
2022-12-31T09:02:32.374Z,0.30
2022-12-31T09:05:11.384Z,0.30
2022-12-31T09:07:44.073Z,0.43
2022-12-31T09:10:20.929Z,1.97
2022-12-31T09:12:54.621Z,2.42
2022-12-31T09:15:26.520Z,2.25
2022-12-31T09:17:53.881Z,0.60
2022-12-31T09:20:24.607Z,1.00
2022-12-31T09:22:54.008Z,0.55
2022-12-31T09:25:22.389Z,0.65
2022-12-31T09:27:59.682Z,1.13
2022-12-31T09:30:30.935Z,0.32
2022-12-31T09:33:04.980Z,2.03
2022-12-31T09:35:38.372Z,1.10
2022-12-31T09:38:15.270Z,0.80
2022-12-31T09:41:12.223Z,1.27
2022-12-31T09:44:24.042Z,1.33
2022-12-31T09:47:22.607Z,2.42
2022-12-31T09:50:20.627Z,7.07
2022-12-31T09:53:29.022Z,0.35
2022-12-31T09:56:04.173Z,0.75
2022-12-31T09:58:41.949Z,3.05
2022-12-31T10:01:19.689Z,0.80
2022-12-31T10:04:11.583Z,1.75
2022-12-31T10:06:46.744Z,2.63
2022-12-31T10:09:30.742Z,12.13
2022-12-31T10:12:16.244Z,2.50
2022-12-31T10:14:56.936Z,0.93
2022-12-31T10:17:34.761Z,0.90
2022-12-31T10:20:27.112Z,1.00
2022-12-31T10:23:23.256Z,1.13
2022-12-31T10:26:13.972Z,0.63
2022-12-31T10:28:49.524Z,1.23
2022-12-31T10:31:37.555Z,1.52
2022-12-31T10:34:14.200Z,3.97
2022-12-31T10:36:55.344Z,2.83
2022-12-31T10:39:36.724Z,1.42
2022-12-31T10:42:49.038Z,1.17
2022-12-31T10:45:50.682Z,1.35
2022-12-31T10:48:50.206Z,2.70
2022-12-31T10:51:48.028Z,2.13
2022-12-31T10:54:37.779Z,2.28
2022-12-31T10:57:40.075Z,1.48
2022-12-31T11:00:16.848Z,1.05
2022-12-31T11:03:31.200Z,4.93
2022-12-31T11:06:41.756Z,2.17
2022-12-31T11:09:50.036Z,2.28
2022-12-31T11:12:37.496Z,2.20
2022-12-31T11:15:18.466Z,2.92
2022-12-31T11:17:58.576Z,3.72
2022-12-31T11:20:37.404Z,2.20
2022-12-31T11:23:18.047Z,1.20
2022-12-31T11:26:01.394Z,2.58
2022-12-31T11:29:08.636Z,3.03
2022-12-31T11:31:54.682Z,3.72
2022-12-31T11:34:49.423Z,4.10
2022-12-31T11:37:32.194Z,2.08
2022-12-31T11:40:15.028Z,2.88
2022-12-31T11:42:50.629Z,1.00
2022-12-31T11:45:26.981Z,1.48
2022-12-31T11:51:10.131Z,1.40
2022-12-31T11:54:09.672Z,0.93
2022-12-31T11:56:40.832Z,0.93
2022-12-31T11:59:15.728Z,1.10
2022-12-31T12:01:53.020Z,1.77
2022-12-31T12:04:19.687Z,3.58
2022-12-31T12:06:46.301Z,1.15
2022-12-31T12:09:15.542Z,0.70
2022-12-31T12:11:43.531Z,1.15
2022-12-31T12:14:20.379Z,1.10
2022-12-31T12:16:47.192Z,0.88
2022-12-31T12:19:17.745Z,6.90
2022-12-31T12:21:45.959Z,1.15
2022-12-31T12:24:20.570Z,1.77
2022-12-31T12:26:49.139Z,1.02
2022-12-31T12:29:18.358Z,1.98
2022-12-31T12:31:55.273Z,1.20
2022-12-31T12:34:24.861Z,2.22
2022-12-31T12:36:51.586Z,1.42
2022-12-31T12:39:21.216Z,1.35
2022-12-31T12:41:59.771Z,2.15
2022-12-31T12:44:26.600Z,2.67
2022-12-31T12:46:53.757Z,8.85
2022-12-31T12:49:24.035Z,1.67
2022-12-31T12:52:15.715Z,1.77
2022-12-31T12:55:08.580Z,5.30
2022-12-31T12:57:46.242Z,1.27
2022-12-31T13:00:19.199Z,1.90
2022-12-31T13:03:23.355Z,5.32
2022-12-31T13:06:13.960Z,2.72
2022-12-31T13:08:57.207Z,2.15
2022-12-31T13:11:32.684Z,3.08
2022-12-31T13:14:10.519Z,2.13
2022-12-31T13:16:43.395Z,3.47
2022-12-31T13:19:18.446Z,3.05
2022-12-31T13:21:55.070Z,2.75
2022-12-31T13:24:31.883Z,1.65
2022-12-31T13:27:09.684Z,2.13
2022-12-31T13:29:39.576Z,2.50
2022-12-31T13:32:09.029Z,3.45
2022-12-31T13:34:40.063Z,4.55
2022-12-31T13:37:23.326Z,1.40
2022-12-31T13:39:56.828Z,3.78
2022-12-31T13:44:59.199Z,2.95
2022-12-31T13:47:33.099Z,2.78
2022-12-31T13:50:14.148Z,6.35
2022-12-31T13:52:46.231Z,2.40
2022-12-31T13:55:18.289Z,2.75
2022-12-31T13:57:49.140Z,1.92
2022-12-31T14:00:22.782Z,1.10
2022-12-31T14:02:56.564Z,1.05
2022-12-31T14:05:30.689Z,0.80
2022-12-31T14:07:59.979Z,2.75
2022-12-31T14:10:35.789Z,1.00
2022-12-31T14:13:11.834Z,5.07
2022-12-31T14:15:46.786Z,3.42
2022-12-31T14:18:21.699Z,2.58
2022-12-31T14:20:53.607Z,1.27
2022-12-31T14:23:38.509Z,1.85
2022-12-31T14:26:11.204Z,0.50
2022-12-31T14:28:46.849Z,1.67
2022-12-31T14:31:27.201Z,2.53
2022-12-31T14:34:02.155Z,4.35
2022-12-31T14:36:40.710Z,0.73
2022-12-31T14:39:25.848Z,1.48
2022-12-31T14:42:04.023Z,2.70
2022-12-31T14:44:46.078Z,3.53
2022-12-31T14:47:26.932Z,4.60
2022-12-31T14:50:04.197Z,1.30
2022-12-31T14:52:32.851Z,2.95
2022-12-31T14:55:01.941Z,0.95
2022-12-31T14:57:54.439Z,1.95
2022-12-31T15:00:32.651Z,2.10
2022-12-31T15:03:02.734Z,1.38
2022-12-31T15:05:31.086Z,2.83
2022-12-31T15:08:24.372Z,1.33
2022-12-31T15:11:05.873Z,4.10
2022-12-31T15:13:43.670Z,0.80
2022-12-31T15:16:24.877Z,2.47
2022-12-31T15:19:20.642Z,3.22
2022-12-31T15:21:59.592Z,3.05
2022-12-31T15:24:27.893Z,1.58
2022-12-31T15:26:57.422Z,1.38
2022-12-31T15:29:27.675Z,2.15
2022-12-31T15:31:56.078Z,2.05
2022-12-31T15:34:29.601Z,1.73
2022-12-31T15:39:40.328Z,5.32
2022-12-31T15:42:37.776Z,1.92
2022-12-31T15:45:11.591Z,2.38
2022-12-31T15:47:42.348Z,2.38
2022-12-31T15:50:17.246Z,1.92
2022-12-31T15:52:46.955Z,1.23
2022-12-31T15:55:23.236Z,2.25
2022-12-31T15:57:50.683Z,1.60
2022-12-31T16:00:20.371Z,12.35
2022-12-31T16:02:48.107Z,4.05
2022-12-31T16:05:22.947Z,5.45
2022-12-31T16:07:53.866Z,5.85
2022-12-31T16:10:24.306Z,4.15
2022-12-31T16:12:52.931Z,3.38
2022-12-31T16:15:22.929Z,2.35
2022-12-31T16:17:59.668Z,1.88
2022-12-31T16:20:29.927Z,5.63
2022-12-31T16:22:57.929Z,3.20
2022-12-31T16:25:33.499Z,1.17
2022-12-31T16:28:02.571Z,4.10
2022-12-31T16:30:31.163Z,2.55
2022-12-31T16:33:00.358Z,5.57
2022-12-31T16:35:30.175Z,4.35
2022-12-31T16:38:10.913Z,2.33
2022-12-31T16:40:37.761Z,4.10
2022-12-31T16:43:04.525Z,2.40
2022-12-31T16:45:33.932Z,5.05
2022-12-31T16:48:16.346Z,2.42
2022-12-31T16:50:46.152Z,1.88
2022-12-31T16:53:15.923Z,1.50
2022-12-31T16:55:43.204Z,2.78
2022-12-31T16:58:19.234Z,3.60
2022-12-31T17:00:46.983Z,1.67
2022-12-31T17:03:18.667Z,2.60
2022-12-31T17:06:11.186Z,4.60
2022-12-31T17:08:40.906Z,5.18
2022-12-31T17:11:23.358Z,6.35
2022-12-31T17:13:55.968Z,2.80
2022-12-31T17:16:22.909Z,2.85
2022-12-31T17:18:49.679Z,2.35
2022-12-31T17:21:18.565Z,4.50
2022-12-31T17:23:53.496Z,3.42
2022-12-31T17:26:24.716Z,3.33
2022-12-31T17:28:53.237Z,4.65
2022-12-31T17:31:30.195Z,4.03
2022-12-31T17:34:06.711Z,3.83
2022-12-31T17:36:34.749Z,1.77
2022-12-31T17:39:15.401Z,3.33
2022-12-31T17:41:44.860Z,4.22
2022-12-31T17:44:17.287Z,6.05
2022-12-31T17:46:44.371Z,7.68
2022-12-31T17:49:12.964Z,4.35
2022-12-31T17:51:47.171Z,4.25
2022-12-31T17:54:15.559Z,3.20
2022-12-31T17:56:43.175Z,5.68
2022-12-31T17:59:15.534Z,3.00
2022-12-31T18:01:42.346Z,5.63
2022-12-31T18:04:12.989Z,5.20
2022-12-31T18:06:41.302Z,2.85
2022-12-31T18:09:08.215Z,4.60
2022-12-31T18:11:36.116Z,4.47
2022-12-31T18:14:03.237Z,3.00
2022-12-31T18:16:30.221Z,2.78
2022-12-31T18:18:58.789Z,2.22
2022-12-31T18:21:29.042Z,4.05
2022-12-31T18:26:24.130Z,5.55
2022-12-31T18:28:51.293Z,3.85
2022-12-31T18:31:20.880Z,6.65
2022-12-31T18:33:48.226Z,5.65
2022-12-31T18:36:16.435Z,1.83
2022-12-31T18:38:43.476Z,2.00
2022-12-31T18:41:17.047Z,7.93
2022-12-31T18:43:43.691Z,2.03
2022-12-31T18:46:12.644Z,4.15
2022-12-31T18:48:39.595Z,2.45
2022-12-31T18:51:06.232Z,3.92
2022-12-31T18:53:32.795Z,2.38
2022-12-31T18:55:59.406Z,3.75
2022-12-31T18:58:27.385Z,5.57
2022-12-31T19:00:54.480Z,5.45
2022-12-31T19:03:22.848Z,4.78
2022-12-31T19:05:50.084Z,3.10
2022-12-31T19:08:16.941Z,4.72
2022-12-31T19:10:43.577Z,4.47
2022-12-31T19:13:12.146Z,2.72
2022-12-31T19:15:42.939Z,3.30
2022-12-31T19:18:09.671Z,3.72
2022-12-31T19:20:36.588Z,6.47
2022-12-31T19:23:03.266Z,6.22
2022-12-31T19:25:33.043Z,5.00
2022-12-31T19:27:59.694Z,4.15
2022-12-31T19:30:28.202Z,3.75
2022-12-31T19:32:56.366Z,7.38
2022-12-31T19:35:24.023Z,5.47
2022-12-31T19:37:52.087Z,5.43
2022-12-31T19:40:21.556Z,4.35
2022-12-31T19:42:49.069Z,4.65
2022-12-31T19:45:17.234Z,4.53
2022-12-31T19:47:45.185Z,4.38
2022-12-31T19:50:15.559Z,6.50
2022-12-31T19:52:42.973Z,3.78
2022-12-31T19:55:13.267Z,3.08
2022-12-31T19:57:40.276Z,6.95
2022-12-31T20:00:08.867Z,3.20
2022-12-31T20:02:35.609Z,5.63
2022-12-31T20:05:02.577Z,3.97
2022-12-31T20:07:30.526Z,4.70
2022-12-31T20:09:57.142Z,5.10
2022-12-31T20:12:23.795Z,5.63
2022-12-31T20:14:50.376Z,5.43
2022-12-31T20:17:16.986Z,5.97
2022-12-31T20:19:43.615Z,7.70
2022-12-31T20:22:10.231Z,6.70
2022-12-31T20:24:38.206Z,6.13
2022-12-31T20:27:05.196Z,6.18
2022-12-31T20:29:31.772Z,3.97
2022-12-31T20:31:58.418Z,5.13
2022-12-31T20:34:25.139Z,7.55
2022-12-31T20:36:51.958Z,5.82
2022-12-31T20:39:18.624Z,7.50
2022-12-31T20:41:46.709Z,4.55
2022-12-31T20:44:13.343Z,10.23
2022-12-31T20:46:40.070Z,7.55
2022-12-31T20:49:07.065Z,5.15
2022-12-31T20:51:34.825Z,5.70
2022-12-31T20:54:03.690Z,5.53
2022-12-31T20:56:32.364Z,3.67
2022-12-31T20:59:00.948Z,4.22
2022-12-31T21:01:41.704Z,5.25
2022-12-31T21:04:15.054Z,2.47
2022-12-31T21:06:41.937Z,4.20
2022-12-31T21:09:08.716Z,3.45
2022-12-31T21:11:36.179Z,4.13
2022-12-31T21:14:04.287Z,4.13
2022-12-31T21:16:30.898Z,5.88
2022-12-31T21:18:57.803Z,4.00
2022-12-31T21:21:24.889Z,3.88
2022-12-31T21:23:51.509Z,3.45
2022-12-31T21:26:18.087Z,4.90
2022-12-31T21:28:44.967Z,3.90
2022-12-31T21:31:14.721Z,6.70
2022-12-31T21:33:44.292Z,4.97
2022-12-31T21:36:11.531Z,5.38
2022-12-31T21:38:38.256Z,2.85
2022-12-31T21:41:06.335Z,8.35
2022-12-31T21:43:33.249Z,5.50
2022-12-31T21:46:01.209Z,5.57
2022-12-31T21:48:29.424Z,2.75
2022-12-31T21:51:06.022Z,6.40
2022-12-31T21:53:36.956Z,5.47
2022-12-31T21:56:05.430Z,5.13
2022-12-31T21:58:32.165Z,3.88
2022-12-31T22:01:00.053Z,4.35
2022-12-31T22:03:26.955Z,4.05
2022-12-31T22:05:58.107Z,3.55
2022-12-31T22:08:24.829Z,3.40
2022-12-31T22:10:52.983Z,5.88
2022-12-31T22:13:19.812Z,4.57
2022-12-31T22:15:48.170Z,5.13
2022-12-31T22:18:16.247Z,4.07
2022-12-31T22:20:42.940Z,6.03
2022-12-31T22:23:11.689Z,30.13
2022-12-31T22:25:39.165Z,4.32
2022-12-31T22:30:54.192Z,3.60
2022-12-31T22:33:20.975Z,1.77
2022-12-31T22:35:57.060Z,7.78
2022-12-31T22:38:25.257Z,1.88
2022-12-31T22:40:52.057Z,3.40
2022-12-31T22:43:18.650Z,3.40
2022-12-31T22:45:45.274Z,2.78
2022-12-31T22:48:11.906Z,4.47
2022-12-31T22:50:38.542Z,3.47
2022-12-31T22:53:05.133Z,4.85
2022-12-31T22:55:33.045Z,3.95
2022-12-31T22:57:59.695Z,3.30
2022-12-31T23:00:38.560Z,4.03
2022-12-31T23:03:05.679Z,4.63
2022-12-31T23:05:32.461Z,15.88
2022-12-31T23:07:59.350Z,48.88
2022-12-31T23:10:26.099Z,33.17
2022-12-31T23:12:54.110Z,23.75
2022-12-31T23:15:20.727Z,51.75
2022-12-31T23:17:47.353Z,83.10
2022-12-31T23:20:16.802Z,50.80
2022-12-31T23:22:43.588Z,25.45
2022-12-31T23:25:10.321Z,27.02
2022-12-31T23:27:37.117Z,15.70
2022-12-31T23:30:06.404Z,21.42
2022-12-31T23:32:33.159Z,20.65
2022-12-31T23:35:03.234Z,23.27
2022-12-31T23:37:33.286Z,19.27
2022-12-31T23:39:59.894Z,19.60
2022-12-31T23:42:26.523Z,11.82
2022-12-31T23:44:53.116Z,15.80
2022-12-31T23:47:21.322Z,15.05
2022-12-31T23:49:48.216Z,13.10
2022-12-31T23:52:14.778Z,9.60
2022-12-31T23:54:41.477Z,11.65
2022-12-31T23:57:08.164Z,15.80
2022-12-31T23:59:34.808Z,10.65
